Time;durP1;ratioP1;P1;durP2;ratioP2;P2;SDS_P1;SDS_P2;PMS_P1;PMS_P2;Temp;Humidity;BMP_temperature;BMP_pressure;BME280_temperature;BME280_humidity;BME280_pressure;Samples;Min_cycle;Max_cycle;Signal;HPM_P1;HPM_P2
2022/10/21 00:02:16;;;;;;;5.83;3.30;;;;;;;19.76;56.87;100733.31;5063135;28;20268;-61
2022/10/21 00:04:41;;;;;;;5.07;3.30;;;;;;;19.71;56.97;100723.13;5062557;28;20752;-61
2022/10/21 00:07:07;;;;;;;5.90;3.27;;;;;;;19.73;57.04;100723.81;5063201;28;20280;-60
2022/10/21 00:09:32;;;;;;;5.93;3.50;;;;;;;19.73;56.81;100718.50;5062586;28;20271;-62
2022/10/21 00:11:57;;;;;;;4.57;2.80;;;;;;;19.71;56.94;100722.25;5062742;28;20086;-62
2022/10/21 00:14:22;;;;;;;7.30;3.17;;;;;;;19.65;56.78;100714.91;5062394;28;20516;-60
2022/10/21 00:16:48;;;;;;;7.55;3.30;;;;;;;19.59;56.86;100708.34;5061417;28;20277;-61
2022/10/21 00:19:13;;;;;;;6.40;3.17;;;;;;;19.64;57.00;100711.41;5062406;28;20029;-62
2022/10/21 00:21:39;;;;;;;7.10;3.50;;;;;;;19.69;57.20;100722.44;5062728;28;20737;-61
2022/10/21 00:24:05;;;;;;;6.43;3.50;;;;;;;19.70;56.86;100712.69;5062464;28;20035;-61
2022/10/21 00:26:30;;;;;;;5.70;3.28;;;;;;;19.64;56.74;100705.28;5062547;28;20242;-61
2022/10/21 00:28:56;;;;;;;5.03;3.22;;;;;;;19.69;56.95;100700.41;5062274;28;20478;-61
2022/10/21 00:31:22;;;;;;;5.75;3.13;;;;;;;19.66;57.15;100700.69;5062680;28;20033;-62
2022/10/21 00:33:48;;;;;;;6.03;3.45;;;;;;;19.66;57.09;100698.06;5062527;28;20032;-61
2022/10/21 00:36:14;;;;;;;5.80;3.00;;;;;;;19.66;56.77;100705.97;5061948;28;20368;-61
2022/10/21 00:38:40;;;;;;;6.13;3.45;;;;;;;19.65;56.96;100696.41;5062570;28;20032;-63
2022/10/21 00:41:05;;;;;;;6.15;3.60;;;;;;;19.63;56.90;100699.19;5061865;28;20119;-62
2022/10/21 00:43:30;;;;;;;5.78;3.38;;;;;;;19.56;56.85;100698.88;5061965;28;20123;-61
2022/10/21 00:46:03;;;;;;;6.60;3.30;;;;;;;19.64;57.00;100710.56;5061910;28;20040;-62
2022/10/21 00:48:34;;;;;;;6.65;3.30;;;;;;;19.61;57.18;100705.56;5062391;28;20040;-60
2022/10/21 00:51:06;;;;;;;5.22;3.15;;;;;;;19.63;57.00;100715.03;5062893;28;20081;-60
2022/10/21 00:53:34;;;;;;;7.55;3.58;;;;;;;19.56;56.95;100693.59;5062165;28;20376;-61
2022/10/21 00:56:06;;;;;;;6.57;3.50;;;;;;;19.52;56.90;100681.63;5061389;28;20056;-61
2022/10/21 00:58:33;;;;;;;6.07;3.58;;;;;;;19.58;57.02;100688.16;5061822;28;20468;-61
2022/10/21 01:01:02;;;;;;;5.15;3.40;;;;;;;19.58;56.95;100690.81;5062009;28;20029;-60
2022/10/21 01:03:29;;;;;;;6.82;3.45;;;;;;;19.60;57.09;100691.53;5061683;28;20017;-61
2022/10/21 01:05:57;;;;;;;7.45;3.60;;;;;;;19.54;56.95;100677.03;5061281;28;20028;-60
2022/10/21 01:08:23;;;;;;;6.30;3.45;;;;;;;19.54;57.15;100670.94;5061710;28;20028;-61
2022/10/21 01:10:49;;;;;;;5.05;3.45;;;;;;;19.57;56.93;100674.13;5061958;28;20039;-60
2022/10/21 01:13:50;;;;;;;6.35;3.58;;;;;;;19.57;57.08;100670.66;5061454;28;20024;-60
2022/10/21 01:16:45;;;;;;;7.88;3.22;;;;;;;19.55;57.14;100676.06;5060935;28;20123;-61
2022/10/21 01:19:19;;;;;;;5.28;3.40;;;;;;;19.55;56.91;100668.16;5061712;28;20032;-60
2022/10/21 01:22:00;;;;;;;5.88;3.20;;;;;;;19.47;56.99;100654.78;5061559;28;20093;-60
2022/10/21 01:24:37;;;;;;;5.93;3.72;;;;;;;19.51;57.00;100656.16;5061533;28;20055;-60
2022/10/21 01:27:15;;;;;;;6.25;3.40;;;;;;;19.44;57.25;100636.56;5061142;28;20048;-61
2022/10/21 01:29:55;;;;;;;5.53;3.58;;;;;;;19.53;57.08;100648.94;5061478;28;20255;-61
2022/10/21 01:33:11;;;;;;;6.20;3.70;;;;;;;19.51;57.16;100653.53;5061451;28;20028;-60
2022/10/21 01:35:53;;;;;;;5.20;3.35;;;;;;;19.50;57.01;100641.31;5018374;28;20203;-61
2022/10/21 01:38:40;;;;;;;7.20;3.53;;;;;;;19.49;57.18;100644.91;5018905;28;20212;-59
2022/10/21 01:41:23;;;;;;;5.20;3.38;;;;;;;19.49;56.99;100631.69;5049170;28;20050;-59
2022/10/21 01:43:59;;;;;;;5.72;3.53;;;;;;;19.42;57.13;100622.63;5061384;28;20181;-61
2022/10/21 01:46:40;;;;;;;6.68;3.60;;;;;;;19.39;56.91;100613.19;5061209;28;20407;-59
2022/10/21 01:49:17;;;;;;;6.63;3.50;;;;;;;19.45;57.03;100618.88;5061252;28;20036;-61
2022/10/21 01:51:43;;;;;;;5.43;3.28;;;;;;;19.39;57.08;100612.34;5061073;28;20033;-62
2022/10/21 01:54:15;;;;;;;6.65;3.42;;;;;;;19.35;57.21;100603.03;5061174;28;20028;-61
2022/10/21 01:56:43;;;;;;;4.88;3.20;;;;;;;19.45;57.10;100622.34;5060688;28;20102;-60
2022/10/21 01:59:11;;;;;;;7.43;3.28;;;;;;;19.35;57.04;100595.09;5061276;28;20045;-61
2022/10/21 02:01:38;;;;;;;5.70;3.30;;;;;;;19.36;57.18;100599.44;5061227;28;20032;-59
2022/10/21 02:04:07;;;;;;;8.48;3.33;;;;;;;19.44;57.01;100611.91;5060818;28;20025;-61
2022/10/21 02:06:32;;;;;;;6.32;3.45;;;;;;;19.43;57.02;100612.91;5060903;28;20028;-60
2022/10/21 02:08:58;;;;;;;6.82;3.20;;;;;;;19.41;56.87;100613.06;5063796;28;20086;-62
2022/10/21 02:11:23;;;;;;;4.95;2.97;;;;;;;19.34;56.88;100594.28;5064918;28;20020;-60
2022/10/21 02:13:56;;;;;;;6.72;3.63;;;;;;;19.41;56.87;100602.47;5065309;28;20036;-62
2022/10/21 02:16:27;;;;;;;5.95;3.67;;;;;;;19.40;56.73;100590.22;5065180;28;20093;-61
2022/10/21 02:18:54;;;;;;;5.03;3.20;;;;;;;19.38;57.04;100584.25;5064662;28;20028;-60
2022/10/21 02:21:23;;;;;;;5.88;3.30;;;;;;;19.39;57.13;100583.25;5065381;28;20353;-61
2022/10/21 02:23:52;;;;;;;5.50;3.05;;;;;;;19.38;56.73;100585.09;5064633;28;20138;-61
2022/10/21 02:26:20;;;;;;;6.43;3.30;;;;;;;19.38;57.01;100578.97;5064740;28;20115;-61
2022/10/21 02:28:46;;;;;;;6.97;3.20;;;;;;;19.36;56.80;100594.97;5064864;28;20040;-61
2022/10/21 02:31:26;;;;;;;5.43;3.47;;;;;;;19.32;57.01;100590.91;5064507;28;20047;-61
2022/10/21 02:34:12;;;;;;;6.03;3.70;;;;;;;19.37;56.95;100607.19;5064541;28;20081;-60
2022/10/21 02:36:41;;;;;;;6.60;3.35;;;;;;;19.29;57.00;100593.00;5064757;28;20036;-60
2022/10/21 02:39:17;;;;;;;5.30;3.38;;;;;;;19.27;56.96;100582.59;5063206;28;20505;-61
2022/10/21 02:41:43;;;;;;;6.90;3.20;;;;;;;19.32;56.98;100593.56;5064749;28;20033;-60
2022/10/21 02:44:09;;;;;;;5.03;3.38;;;;;;;19.33;56.75;100597.06;5064513;28;20052;-59
2022/10/21 02:46:36;;;;;;;4.72;2.80;;;;;;;19.32;56.77;100592.75;5064231;28;20036;-61
2022/10/21 02:49:02;;;;;;;6.00;3.20;;;;;;;19.31;56.69;100575.22;5064348;28;20024;-60
2022/10/21 02:51:28;;;;;;;5.40;3.45;;;;;;;19.28;56.94;100572.84;5064834;28;20029;-62
2022/10/21 02:53:53;;;;;;;6.57;3.50;;;;;;;19.23;57.06;100560.03;5063633;28;20494;-60
2022/10/21 02:56:18;;;;;;;4.68;3.10;;;;;;;19.31;56.90;100575.22;5064040;28;20078;-61
2022/10/21 02:58:43;;;;;;;5.53;3.22;;;;;;;19.23;56.85;100564.50;5064254;28;20033;-61
2022/10/21 03:01:09;;;;;;;5.20;3.20;;;;;;;19.21;57.04;100557.53;5064015;28;20073;-62
2022/10/21 03:03:34;;;;;;;5.50;3.00;;;;;;;19.23;56.70;100561.84;5064002;28;20028;-62
2022/10/21 03:05:59;;;;;;;5.87;3.97;;;;;;;19.22;56.63;100563.69;5064022;28;20036;-60
2022/10/21 03:08:24;;;;;;;7.27;3.37;;;;;;;19.21;56.84;100572.56;5063947;28;20257;-61
2022/10/21 03:10:50;;;;;;;5.15;3.35;;;;;;;19.28;56.75;100575.47;5064307;28;20257;-61
2022/10/21 03:13:16;;;;;;;5.63;3.03;;;;;;;19.25;56.60;100568.69;5063714;28;20281;-60
2022/10/21 03:15:41;;;;;;;4.85;3.15;;;;;;;19.27;56.79;100572.00;5063511;28;20028;-61
2022/10/21 03:18:06;;;;;;;4.67;3.20;;;;;;;19.20;56.81;100558.53;5063706;28;20486;-60
2022/10/21 03:20:31;;;;;;;5.50;2.93;;;;;;;19.23;56.73;100570.63;5063612;28;20269;-60
2022/10/21 03:22:57;;;;;;;6.73;3.00;;;;;;;19.20;56.67;100570.88;5063674;28;20269;-61
2022/10/21 03:25:22;;;;;;;6.43;3.35;;;;;;;19.23;56.64;100575.91;5063549;28;20381;-62
2022/10/21 03:27:49;;;;;;;5.03;3.10;;;;;;;19.26;56.68;100586.19;5063644;28;20071;-62
2022/10/21 03:30:15;;;;;;;5.30;3.00;;;;;;;19.25;56.90;100586.31;5063349;28;20261;-61
2022/10/21 03:32:40;;;;;;;7.25;3.20;;;;;;;19.18;56.71;100572.84;5063475;28;20081;-61
2022/10/21 03:35:06;;;;;;;4.40;2.90;;;;;;;19.24;56.60;100582.84;5063216;28;20028;-61
2022/10/21 03:37:31;;;;;;;5.10;3.00;;;;;;;19.24;56.65;100579.41;5063263;28;20280;-61
2022/10/21 03:39:56;;;;;;;5.27;2.97;;;;;;;19.13;56.53;100561.84;5063485;28;21287;-61
2022/10/21 03:42:22;;;;;;;6.30;2.90;;;;;;;19.22;56.45;100563.69;5063455;28;20277;-61
2022/10/21 03:44:47;;;;;;;5.18;2.60;;;;;;;19.08;56.57;100548.25;5062832;28;20296;-61
2022/10/21 03:47:12;;;;;;;5.00;3.57;;;;;;;19.21;56.63;100570.75;5063221;28;20042;-62
2022/10/21 03:49:37;;;;;;;7.57;3.40;;;;;;;19.20;56.56;100566.47;5062978;28;20272;-61
2022/10/21 03:52:03;;;;;;;5.47;3.00;;;;;;;19.15;56.41;100547.56;5063377;28;20265;-61
2022/10/21 03:54:28;;;;;;;6.88;3.88;;;;;;;19.16;56.48;100551.03;5063102;28;21267;-63
2022/10/21 03:56:53;;;;;;;6.38;2.92;;;;;;;19.20;56.46;100561.19;5063115;28;20472;-61
2022/10/21 03:59:18;;;;;;;6.07;2.88;;;;;;;19.20;56.64;100555.88;5063057;28;20040;-62
2022/10/21 04:01:44;;;;;;;6.00;2.85;;;;;;;19.19;56.50;100558.66;5063553;28;20037;-60
2022/10/21 04:04:09;;;;;;;6.15;2.80;;;;;;;19.12;56.45;100554.91;5062785;28;20559;-61
2022/10/21 04:06:35;;;;;;;5.63;2.95;;;;;;;19.14;56.43;100558.25;5062785;28;20974;-61
2022/10/21 04:09:00;;;;;;;5.28;2.67;;;;;;;19.20;56.32;100568.25;5063044;28;20036;-61
2022/10/21 04:11:25;;;;;;;6.20;2.88;;;;;;;19.13;56.35;100559.22;5063025;28;20075;-60
2022/10/21 04:13:51;;;;;;;4.95;2.70;;;;;;;19.11;56.43;100556.72;5062723;28;20131;-60
2022/10/21 04:16:19;;;;;;;4.93;2.90;;;;;;;19.09;56.39;100558.66;5062333;28;20391;-60
2022/10/21 04:18:45;;;;;;;6.13;2.78;;;;;;;19.15;56.26;100570.47;5062521;28;20021;-62
2022/10/21 04:21:10;;;;;;;6.05;2.90;;;;;;;19.10;56.37;100559.50;5062411;28;20035;-59
2022/10/21 04:23:35;;;;;;;4.20;2.50;;;;;;;19.16;56.36;100565.06;5062741;28;20040;-61
2022/10/21 04:26:01;;;;;;;7.38;3.20;;;;;;;19.16;56.45;100565.06;5062321;28;20028;-61
2022/10/21 04:28:26;;;;;;;4.65;2.72;;;;;;;19.16;56.17;100558.94;5062694;28;20037;-61
2022/10/21 04:30:52;;;;;;;5.20;3.05;;;;;;;19.09;56.24;100560.44;5061728;28;20101;-60
2022/10/21 04:33:17;;;;;;;5.40;2.85;;;;;;;19.13;56.06;100572.44;5062433;28;20361;-61
2022/10/21 04:35:42;;;;;;;5.47;2.63;;;;;;;19.07;56.19;100565.03;5061985;28;20043;-60
2022/10/21 04:38:08;;;;;;;5.32;2.88;;;;;;;18.99;56.33;100553.38;5062536;28;20181;-62
2022/10/21 04:40:33;;;;;;;4.80;2.60;;;;;;;18.89;56.08;100534.03;5062045;28;20182;-60
2022/10/21 04:42:59;;;;;;;5.75;2.33;;;;;;;19.13;56.22;100575.06;5062145;28;20078;-61
2022/10/21 04:45:24;;;;;;;4.85;2.50;;;;;;;19.11;56.23;100577.84;5061858;28;20059;-62
2022/10/21 04:47:49;;;;;;;5.30;2.70;;;;;;;19.12;56.10;100584.81;5062639;28;20024;-62
2022/10/21 04:50:14;;;;;;;4.43;2.60;;;;;;;19.06;56.15;100572.16;5061919;28;20551;-61
2022/10/21 04:52:40;;;;;;;5.30;3.00;;;;;;;19.02;56.22;100562.81;5062245;28;20276;-62
2022/10/21 04:55:06;;;;;;;4.25;2.30;;;;;;;19.11;56.07;100572.56;5061675;28;20041;-60
2022/10/21 04:57:31;;;;;;;6.45;2.70;;;;;;;19.10;55.97;100567.41;5061664;28;20025;-60
2022/10/21 04:59:56;;;;;;;6.93;2.42;;;;;;;19.09;56.15;100563.94;5061878;28;20024;-60
2022/10/21 05:02:21;;;;;;;4.10;2.40;;;;;;;19.01;55.94;100556.72;5061669;28;20085;-64
2022/10/21 05:04:47;;;;;;;4.80;2.40;;;;;;;19.08;56.00;100564.91;5061439;28;20296;-59
2022/10/21 05:07:13;;;;;;;4.65;2.63;;;;;;;19.01;56.18;100554.06;5061688;28;20044;-60
2022/10/21 05:09:38;;;;;;;4.18;2.40;;;;;;;19.08;56.12;100567.56;5061953;28;20063;-61
2022/10/21 05:12:03;;;;;;;5.95;2.50;;;;;;;19.07;56.28;100563.22;5061498;28;20032;-58
2022/10/21 05:14:29;;;;;;;5.85;2.78;;;;;;;19.08;56.27;100569.38;5061435;28;20054;-62
2022/10/21 05:16:54;;;;;;;6.50;2.70;;;;;;;19.01;56.03;100556.72;5061195;28;20771;-60
2022/10/21 05:19:19;;;;;;;5.33;3.13;;;;;;;19.04;56.22;100558.22;5061596;28;20177;-60
2022/10/21 05:21:45;;;;;;;6.88;3.55;;;;;;;18.99;56.04;100552.53;5061204;28;20254;-61
2022/10/21 05:24:11;;;;;;;5.60;3.00;;;;;;;18.97;55.99;100544.75;5061695;28;20028;-61
2022/10/21 05:26:37;;;;;;;5.43;2.42;;;;;;;19.05;56.30;100562.53;5061296;28;20031;-60
2022/10/21 05:29:02;;;;;;;5.13;2.47;;;;;;;19.01;56.08;100551.44;5061647;28;20368;-64
2022/10/21 05:31:27;;;;;;;4.82;2.55;;;;;;;18.97;55.99;100539.47;5061239;28;20261;-60
2022/10/21 05:33:53;;;;;;;4.75;2.38;;;;;;;18.96;55.94;100532.53;5060852;28;20032;-61
2022/10/21 05:36:18;;;;;;;5.50;2.33;;;;;;;18.97;56.07;100522.78;5061137;28;20036;-62
2022/10/21 05:38:43;;;;;;;4.90;2.42;;;;;;;19.03;56.16;100528.34;5060840;28;20028;-62
2022/10/21 05:41:09;;;;;;;6.23;2.17;;;;;;;19.02;55.90;100517.91;5061141;28;20369;-61
2022/10/21 05:43:36;;;;;;;4.78;2.65;;;;;;;19.06;55.78;100524.59;5059716;28;20278;-60
2022/10/21 05:46:01;;;;;;;8.52;2.40;;;;;;;19.04;56.12;100518.59;5061298;28;20049;-60
2022/10/21 05:48:27;;;;;;;5.78;2.10;;;;;;;19.02;55.93;100512.63;5060783;28;20036;-61
2022/10/21 05:50:53;;;;;;;5.60;2.45;;;;;;;19.05;56.01;100508.91;5061270;28;20115;-61
2022/10/21 05:53:20;;;;;;;3.97;1.92;;;;;;;19.08;55.90;100514.72;5061057;28;20033;-60
2022/10/21 05:55:53;;;;;;;4.30;2.42;;;;;;;19.14;55.98;100519.47;5061143;28;20029;-63
2022/10/21 05:58:19;;;;;;;4.93;2.30;;;;;;;19.08;55.62;100508.63;5061107;28;20460;-61
2022/10/21 06:00:44;;;;;;;5.47;2.40;;;;;;;19.18;55.75;100523.50;5061204;28;20029;-62
2022/10/21 06:03:09;;;;;;;4.83;2.37;;;;;;;19.13;56.09;100516.97;5060759;28;20261;-59
2022/10/21 06:05:34;;;;;;;3.87;1.87;;;;;;;19.15;56.04;100512.34;5060983;28;21210;-59
2022/10/21 06:07:59;;;;;;;4.70;2.37;;;;;;;19.24;55.98;100526.56;5061070;28;20036;-59
2022/10/21 06:10:25;;;;;;;6.80;2.20;;;;;;;19.28;55.92;100527.94;5061175;28;20489;-61
2022/10/21 06:12:50;;;;;;;4.55;2.42;;;;;;;19.21;55.97;100509.16;5060670;28;20872;-62
2022/10/21 06:15:15;;;;;;;3.80;1.70;;;;;;;19.25;56.34;100517.63;5060622;28;20123;-60
2022/10/21 06:17:41;;;;;;;5.78;2.45;;;;;;;19.31;56.38;100522.38;5060392;28;20760;-61
2022/10/21 06:20:06;;;;;;;4.75;2.40;;;;;;;19.26;56.18;100506.09;5061393;28;20062;-59
2022/10/21 06:22:31;;;;;;;4.82;2.30;;;;;;;19.29;56.36;100511.09;5060640;28;20063;-60
2022/10/21 06:24:57;;;;;;;6.20;2.30;;;;;;;19.29;56.21;100503.19;5061045;28;20464;-60
2022/10/21 06:27:22;;;;;;;5.50;2.00;;;;;;;19.38;56.41;100518.19;5060894;28;20025;-60
2022/10/21 06:29:47;;;;;;;4.30;2.20;;;;;;;19.30;56.07;100508.31;5060774;28;20313;-59
2022/10/21 06:32:12;;;;;;;4.32;2.30;;;;;;;19.32;56.44;100503.72;5060280;28;20261;-61
2022/10/21 06:34:38;;;;;;;5.57;2.30;;;;;;;19.32;56.33;100501.09;5060617;28;20024;-62
2022/10/21 06:37:03;;;;;;;4.65;2.05;;;;;;;19.32;56.19;100511.66;5060714;28;20364;-62
2022/10/21 06:39:29;;;;;;;6.32;2.10;;;;;;;19.35;56.21;100524.59;5060890;28;20016;-61
2022/10/21 06:41:54;;;;;;;4.40;2.05;;;;;;;19.37;56.26;100527.09;5060441;28;20039;-60
2022/10/21 06:44:19;;;;;;;6.55;1.98;;;;;;;19.31;56.43;100528.50;5060650;28;20838;-60
2022/10/21 06:46:44;;;;;;;4.93;1.80;;;;;;;19.37;56.63;100537.66;5060319;28;20127;-60
2022/10/21 06:49:10;;;;;;;5.77;2.27;;;;;;;19.38;56.90;100534.06;5060307;28;20721;-60
2022/10/21 06:51:35;;;;;;;5.60;2.42;;;;;;;19.42;57.24;100545.16;5060519;28;20428;-62
2022/10/21 06:54:00;;;;;;;6.50;2.67;;;;;;;19.43;58.27;100545.03;5061496;28;20517;-62
2022/10/21 06:56:26;;;;;;;7.32;2.85;;;;;;;19.47;58.52;100554.34;5063773;28;20036;-62
2022/10/21 06:58:54;;;;;;;10.68;3.00;;;;;;;19.44;58.58;100554.63;5062902;28;20024;-61
2022/10/21 07:01:25;;;;;;;9.25;2.97;;;;;;;19.47;58.69;100564.06;5064114;28;20479;-61
2022/10/21 07:03:50;;;;;;;8.60;3.40;;;;;;;19.48;58.96;100563.94;5063722;28;20027;-61
2022/10/21 07:06:16;;;;;;;6.75;3.17;;;;;;;19.51;59.02;100571.59;5063895;28;20041;-61
2022/10/21 07:08:42;;;;;;;7.68;2.63;;;;;;;19.56;58.80;100581.75;5063977;28;20040;-62
2022/10/21 07:11:08;;;;;;;7.00;2.65;;;;;;;19.59;58.75;100584.09;5062989;28;20034;-65
2022/10/21 07:13:34;;;;;;;12.48;3.30;;;;;;;19.53;58.92;100590.78;5063778;28;20032;-64
2022/10/21 07:16:03;;;;;;;8.75;3.75;;;;;;;19.45;59.18;100587.19;5063054;28;21048;-65
2022/10/21 07:18:29;;;;;;;6.82;2.97;;;;;;;19.55;59.15;100601.22;5063271;28;20032;-68
2022/10/21 07:20:54;;;;;;;10.00;2.70;;;;;;;19.58;58.78;100587.72;5063426;28;20123;-67
2022/10/21 07:23:20;;;;;;;7.57;2.83;;;;;;;19.57;58.68;100581.59;5063048;28;20095;-67
2022/10/21 07:25:45;;;;;;;7.40;3.15;;;;;;;19.59;58.23;100578.81;5062534;28;20380;-69
2022/10/21 07:28:11;;;;;;;6.20;2.38;;;;;;;19.71;58.44;100595.34;5063179;28;20051;-63
2022/10/21 07:30:43;;;;;;;8.82;2.85;;;;;;;19.78;58.02;100593.03;5062646;28;20412;-68
2022/10/21 07:33:09;;;;;;;7.70;2.50;;;;;;;19.83;58.39;100596.91;5063045;28;20035;-64
2022/10/21 07:35:35;;;;;;;8.98;2.90;;;;;;;19.81;57.92;100590.09;5062688;28;20479;-65
2022/10/21 07:38:00;;;;;;;7.80;2.60;;;;;;;19.88;58.02;100601.78;5062809;28;20024;-64
2022/10/21 07:40:27;;;;;;;5.45;2.42;;;;;;;19.86;58.23;100601.91;5062924;28;20440;-70
2022/10/21 07:42:53;;;;;;;7.35;2.63;;;;;;;19.75;58.06;100584.34;5062701;28;20021;-66
2022/10/21 07:45:18;;;;;;;9.05;2.60;;;;;;;19.81;57.92;100588.28;5062320;28;20504;-65
2022/10/21 07:47:43;;;;;;;6.73;2.60;;;;;;;19.90;57.90;100605.94;5062592;28;20037;-66
2022/10/21 07:50:09;;;;;;;5.67;2.47;;;;;;;19.94;57.30;100607.31;5062772;28;20320;-66
2022/10/21 07:52:34;;;;;;;6.43;2.50;;;;;;;19.98;57.60;100605.25;5062596;28;20339;-71
2022/10/21 07:55:01;;;;;;;7.50;2.70;;;;;;;20.06;57.51;100613.28;5062829;28;20033;-63
2022/10/21 07:57:26;;;;;;;5.38;2.17;;;;;;;20.04;57.50;100614.41;5062631;28;20194;-64
2022/10/21 07:59:51;;;;;;;9.45;2.72;;;;;;;20.02;57.37;100622.47;5062684;28;20876;-70
2022/10/21 08:02:17;;;;;;;4.65;2.20;;;;;;;20.02;57.04;100621.66;5061621;28;20036;-68
2022/10/21 08:04:42;;;;;;;8.10;2.50;;;;;;;20.02;57.08;100617.19;5062117;28;20512;-70
2022/10/21 08:07:07;;;;;;;7.20;2.42;;;;;;;20.01;57.14;100609.41;5061549;28;20268;-67
2022/10/21 08:09:32;;;;;;;9.55;2.65;;;;;;;20.01;57.29;100607.59;5062390;28;20031;-68
2022/10/21 08:11:58;;;;;;;8.90;2.20;;;;;;;20.02;57.40;100595.22;5062279;28;20028;-68
2022/10/21 08:14:23;;;;;;;6.75;2.30;;;;;;;20.10;56.93;100604.09;5062278;28;20040;-70
2022/10/21 08:16:52;;;;;;;5.32;2.03;;;;;;;20.04;57.24;100593.25;5062004;28;20029;-70
2022/10/21 08:19:20;;;;;;;5.90;2.00;;;;;;;20.10;56.76;100601.44;5061527;28;20430;-69
2022/10/21 08:21:46;;;;;;;9.40;2.10;;;;;;;20.09;56.59;100598.94;5061996;28;20424;-68
2022/10/21 08:24:11;;;;;;;5.40;2.25;;;;;;;20.01;57.09;100599.69;5062338;28;20027;-64
2022/10/21 08:26:37;;;;;;;6.68;2.15;;;;;;;20.12;56.74;100627.75;5061508;28;20040;-67
2022/10/21 08:29:02;;;;;;;5.80;2.38;;;;;;;20.07;57.04;100620.22;5061827;28;20028;-69
2022/10/21 08:31:28;;;;;;;5.72;2.00;;;;;;;20.15;56.93;100626.63;5061873;28;20164;-66
2022/10/21 08:33:53;;;;;;;6.60;2.00;;;;;;;20.05;56.69;100606.31;5062248;28;20076;-71
2022/10/21 08:36:21;;;;;;;11.18;2.22;;;;;;;20.12;56.89;100617.16;5061531;28;20075;-70
2022/10/21 08:38:47;;;;;;;5.97;2.05;;;;;;;20.17;56.78;100624.69;5061921;28;20067;-62
2022/10/21 08:41:28;;;;;;;10.45;2.35;;;;;;;20.10;57.00;100619.94;5060002;28;20060;-73
2022/10/21 08:44:01;;;;;;;9.05;2.08;;;;;;;20.17;56.57;100638.75;5062063;28;20059;-69
2022/10/21 08:46:32;;;;;;;5.22;1.95;;;;;;;20.25;56.56;100640.66;5061449;28;20090;-69
2022/10/21 08:49:03;;;;;;;6.18;2.03;;;;;;;20.20;56.12;100619.94;5060027;28;20979;-69
2022/10/21 08:51:36;;;;;;;5.22;2.35;;;;;;;20.23;56.28;100616.16;5059559;28;20036;-68
2022/10/21 08:54:12;;;;;;;5.13;1.92;;;;;;;20.26;56.21;100637.88;5061061;28;20028;-64
2022/10/21 08:56:38;;;;;;;4.47;1.95;;;;;;;20.21;56.16;100650.72;5059898;28;20068;-64
2022/10/21 08:59:12;;;;;;;5.22;2.00;;;;;;;20.17;56.40;100653.78;5061702;28;20459;-64
2022/10/21 09:01:43;;;;;;;;;;;;;;;20.15;56.49;100651.28;5060572;28;20073;-63
2022/10/21 09:04:13;;;;;;;8.10;2.38;;;;;;;20.16;56.39;100655.59;5059629;28;20275;-68
2022/10/21 09:06:56;;;;;;;5.40;2.00;;;;;;;20.08;56.36;100643.06;5061045;28;20047;-71
2022/10/21 09:09:33;;;;;;;9.68;2.10;;;;;;;19.96;56.54;100622.22;5060369;28;20198;-60
2022/10/21 09:12:19;;;;;;;7.78;2.50;;;;;;;20.04;56.58;100640.84;5061103;28;20024;-60
2022/10/21 09:14:44;;;;;;;6.30;2.15;;;;;;;20.09;56.92;100652.69;5060795;28;20069;-60
2022/10/21 09:17:48;;;;;;;5.60;2.10;;;;;;;20.06;57.07;100641.53;5060272;28;20032;-59
2022/10/21 09:20:32;;;;;;;3.78;1.67;;;;;;;20.01;57.21;100619.97;5061271;28;20638;-60
2022/10/21 09:23:34;;;;;;;5.65;1.80;;;;;;;20.07;57.13;100644.03;5060037;28;20067;-66
2022/10/21 09:26:06;;;;;;;3.83;1.80;;;;;;;20.12;57.35;100643.63;5058760;28;20039;-67
2022/10/21 09:28:32;;;;;;;8.07;1.90;;;;;;;20.03;57.04;100624.16;5061472;28;20035;-69
2022/10/21 09:31:01;;;;;;;7.00;1.77;;;;;;;20.14;57.06;100644.34;5060778;28;20732;-67
2022/10/21 09:33:29;;;;;;;5.30;1.80;;;;;;;20.13;56.98;100647.94;5060923;28;20563;-68
2022/10/21 09:36:05;;;;;;;5.70;1.98;;;;;;;20.09;57.11;100636.81;5060581;28;20047;-65
2022/10/21 09:39:00;;;;;;;5.60;1.60;;;;;;;20.19;57.36;100639.44;5060760;28;20028;-66
2022/10/21 09:41:32;;;;;;;5.78;1.70;;;;;;;20.19;57.83;100634.16;5059337;28;20082;-58
2022/10/21 09:43:57;;;;;;;3.67;1.60;;;;;;;20.15;57.20;100648.63;5060274;28;20044;-58
2022/10/21 09:46:23;;;;;;;5.57;1.65;;;;;;;20.13;57.41;100637.38;5061198;28;20062;-59
2022/10/21 09:48:54;;;;;;;4.13;1.58;;;;;;;20.13;57.64;100640.00;5060289;28;20483;-57
2022/10/21 09:51:30;;;;;;;4.97;1.80;;;;;;;20.05;57.54;100624.84;5061327;28;20082;-59
2022/10/21 09:54:10;;;;;;;4.57;1.50;;;;;;;20.10;57.42;100643.75;5061136;28;20113;-59
2022/10/21 09:56:38;;;;;;;5.32;1.80;;;;;;;20.09;57.72;100644.75;5060852;28;20032;-59
2022/10/21 09:59:07;;;;;;;6.55;1.52;;;;;;;20.02;57.84;100638.34;5060969;28;20120;-59
2022/10/21 10:01:32;;;;;;;4.80;1.63;;;;;;;19.98;57.86;100630.84;5060847;28;20032;-60
2022/10/21 10:03:58;;;;;;;4.03;1.48;;;;;;;20.04;58.12;100643.50;5058884;28;20051;-66
2022/10/21 10:06:35;;;;;;;5.32;1.83;;;;;;;20.04;57.96;100643.50;5059581;28;20842;-67
2022/10/21 10:09:06;;;;;;;4.28;1.40;;;;;;;20.06;57.95;100637.09;5059925;28;20411;-68
2022/10/21 10:11:32;;;;;;;6.50;1.90;;;;;;;20.04;57.96;100622.34;5059862;28;20036;-66
2022/10/21 10:14:21;;;;;;;4.32;1.50;;;;;;;20.12;58.30;100646.28;5060233;28;20035;-66
2022/10/21 10:16:46;;;;;;;6.18;2.00;;;;;;;20.19;58.14;100654.50;5060255;28;20033;-63
2022/10/21 10:19:20;;;;;;;5.97;1.47;;;;;;;20.11;58.22;100648.09;5060134;28;20449;-69
2022/10/21 10:22:03;;;;;;;6.00;1.90;;;;;;;20.12;58.30;100640.97;5060430;28;20613;-68
2022/10/21 10:24:30;;;;;;;5.45;1.70;;;;;;;20.19;58.34;100646.56;5059992;28;20411;-68
2022/10/21 10:27:03;;;;;;;5.07;1.63;;;;;;;20.21;57.93;100658.66;5060461;28;20029;-61
2022/10/21 10:29:28;;;;;;;6.85;1.90;;;;;;;20.17;58.40;100656.44;5061277;28;20487;-62
2022/10/21 10:31:57;;;;;;;5.00;1.58;;;;;;;20.16;57.99;100660.06;5064661;28;20158;-64
2022/10/21 10:34:29;;;;;;;6.10;1.63;;;;;;;20.18;58.12;100656.28;5064442;28;20418;-63
2022/10/21 10:37:05;;;;;;;4.35;1.55;;;;;;;20.16;57.86;100660.91;5062445;28;20034;-62
2022/10/21 10:39:34;;;;;;;4.25;1.60;;;;;;;20.14;58.14;100659.34;5064423;28;20369;-64
2022/10/21 10:42:01;;;;;;;4.63;1.52;;;;;;;20.14;58.08;100656.72;5064373;28;20036;-65
2022/10/21 10:44:36;;;;;;;7.65;2.30;;;;;;;20.16;58.79;100660.06;5064436;28;20145;-64
2022/10/21 10:47:04;;;;;;;4.50;1.63;;;;;;;19.91;58.50;100626.13;5064248;28;20111;-61
2022/10/21 10:49:42;;;;;;;4.47;1.90;;;;;;;20.09;58.85;100652.69;5064197;28;20032;-61
2022/10/21 10:52:10;;;;;;;6.70;2.17;;;;;;;20.16;58.25;100668.00;5064256;28;20041;-65
2022/10/21 10:54:41;;;;;;;7.65;1.90;;;;;;;20.14;58.58;100664.66;5064540;28;21227;-62
2022/10/21 10:57:17;;;;;;;6.22;1.83;;;;;;;20.14;58.52;100667.28;5064259;28;20036;-61
2022/10/21 10:59:57;;;;;;;5.78;1.60;;;;;;;20.07;58.25;100649.34;5064235;28;20037;-62
2022/10/21 11:02:31;;;;;;;9.25;2.05;;;;;;;20.15;58.69;100655.75;5064204;28;20104;-63
2022/10/21 11:05:26;;;;;;;6.72;1.80;;;;;;;20.14;58.89;100657.56;5064214;28;20186;-64
2022/10/21 11:07:54;;;;;;;6.65;1.98;;;;;;;20.11;58.98;100648.09;5055600;28;20041;-65
2022/10/21 11:10:31;;;;;;;9.80;2.30;;;;;;;20.06;58.70;100625.66;5063921;28;20036;-62
2022/10/21 11:13:02;;;;;;;8.32;1.98;;;;;;;20.09;58.95;100633.31;5063889;28;20391;-63
2022/10/21 11:15:35;;;;;;;6.20;1.73;;;;;;;20.04;58.84;100620.53;5063475;28;20484;-63
2022/10/21 11:18:12;;;;;;;6.05;1.92;;;;;;;20.04;58.53;100617.88;5063749;28;20028;-63
2022/10/21 11:20:49;;;;;;;8.13;2.00;;;;;;;20.06;58.87;100620.38;5063951;28;20052;-62
2022/10/21 11:23:56;;;;;;;4.78;1.95;;;;;;;20.03;58.54;100626.81;5063854;28;20034;-61
2022/10/21 11:26:30;;;;;;;4.97;1.80;;;;;;;20.08;58.82;100639.63;5063414;28;20036;-63
2022/10/21 11:29:14;;;;;;;;;;;;;;;20.06;58.91;100644.19;5064192;28;20025;-64
2022/10/21 11:31:56;;;;;;;4.65;1.60;;;;;;;20.07;58.47;100644.03;5062984;28;19919;-62
2022/10/21 11:34:51;;;;;;;5.25;1.70;;;;;;;20.04;58.79;100652.25;5059703;28;20028;-68
2022/10/21 11:37:34;;;;;;;5.88;1.70;;;;;;;20.06;58.58;100649.47;5062120;28;20036;-66